Time;durP1;ratioP1;P1;durP2;ratioP2;P2;SDS_P1;SDS_P2;PMS_P1;PMS_P2;Temp;Humidity;BMP_temperature;BMP_pressure;BME280_temperature;BME280_humidity;BME280_pressure;Samples;Min_cycle;Max_cycle;Signal;HPM_P1;HPM_P2
2022/12/04 00:00:00;;;;;;;72.47;35.47;;;;;;;2.32;64.10;100132.22;5050180;28;20049;-79
2022/12/04 00:02:26;;;;;;;66.38;32.78;;;;;;;2.32;64.46;100127.03;5050191;28;20435;-79
2022/12/04 00:04:53;;;;;;;70.97;33.30;;;;;;;2.33;64.54;100123.53;5049993;28;20056;-79
2022/12/04 00:07:19;;;;;;;66.63;30.75;;;;;;;2.34;64.42;100122.66;5049843;28;20053;-79
2022/12/04 00:09:46;;;;;;;67.03;31.77;;;;;;;2.34;64.30;100117.47;5049804;28;20499;-79
2022/12/04 00:12:12;;;;;;;68.60;33.40;;;;;;;2.34;63.80;100120.06;5050134;28;20095;-79
2022/12/04 00:14:38;;;;;;;66.22;32.97;;;;;;;2.34;64.18;100117.47;5050079;28;20103;-79
2022/12/04 00:17:25;;;;;;;60.25;31.00;;;;;;;2.36;64.21;100115.72;5049438;28;20422;-80
2022/12/04 00:19:51;;;;;;;65.90;30.85;;;;;;;2.35;64.95;100116.56;5049802;28;20057;-79
2022/12/04 00:22:19;;;;;;;65.78;31.10;;;;;;;2.36;63.98;100110.50;5049876;28;20483;-80
2022/12/04 00:24:46;;;;;;;62.78;31.23;;;;;;;2.38;63.83;100107.84;5049799;28;20061;-80
2022/12/04 00:27:12;;;;;;;66.60;32.85;;;;;;;2.37;64.48;100107.03;5031832;28;20103;-79
2022/12/04 00:29:39;;;;;;;63.78;32.03;;;;;;;2.38;64.23;100102.66;5050004;28;20135;-81
2022/12/04 00:32:05;;;;;;;68.80;32.20;;;;;;;2.38;64.18;100105.25;5049817;28;20056;-80
2022/12/04 00:34:32;;;;;;;65.60;32.42;;;;;;;2.39;64.33;100107.84;5049758;28;20083;-79
2022/12/04 00:36:58;;;;;;;63.03;31.23;;;;;;;2.40;64.09;100106.97;5049343;28;20085;-79
2022/12/04 00:39:24;;;;;;;65.05;32.15;;;;;;;2.41;64.81;100115.59;5049724;28;20084;-79
2022/12/04 00:41:51;;;;;;;68.40;32.67;;;;;;;2.41;63.94;100118.22;5049971;28;20061;-80
2022/12/04 00:44:17;;;;;;;65.40;32.05;;;;;;;2.41;64.21;100113.00;5049441;28;20568;-79
2022/12/04 00:46:43;;;;;;;64.78;31.10;;;;;;;2.42;64.14;100112.13;5031713;28;20115;-81
2022/12/04 00:49:10;;;;;;;66.28;30.33;;;;;;;2.40;64.00;100101.78;5031675;28;20048;-81
2022/12/04 00:51:37;;;;;;;68.80;33.30;;;;;;;2.42;64.19;100105.19;5053245;28;20065;-80
2022/12/04 00:54:03;;;;;;;61.85;31.02;;;;;;;2.42;64.29;100110.38;5053797;28;20061;-80
2022/12/04 00:56:30;;;;;;;67.32;31.48;;;;;;;2.43;64.09;100098.28;5053239;28;20102;-79
2022/12/04 00:58:58;;;;;;;66.25;33.00;;;;;;;2.42;64.47;100102.59;5053418;28;20098;-80
2022/12/04 01:01:25;;;;;;;66.15;32.05;;;;;;;2.43;64.08;100101.69;5053488;28;20060;-80
2022/12/04 01:03:53;;;;;;;63.65;31.38;;;;;;;2.44;64.51;100107.78;5053602;28;20429;-79
2022/12/04 01:06:24;;;;;;;64.38;31.67;;;;;;;2.44;64.52;100103.41;5053371;28;20114;-79
2022/12/04 01:08:52;;;;;;;64.75;31.52;;;;;;;2.47;64.47;100107.72;5053369;28;20084;-80
2022/12/04 01:11:19;;;;;;;67.90;32.70;;;;;;;2.47;63.95;100108.56;5053273;28;20087;-79
2022/12/04 01:13:46;;;;;;;66.72;31.85;;;;;;;2.47;64.13;100107.72;5035544;28;20096;-79
2022/12/04 01:16:19;;;;;;;67.90;32.33;;;;;;;2.45;64.25;100105.16;5053067;28;20060;-80
2022/12/04 01:18:45;;;;;;;68.70;31.80;;;;;;;2.47;64.38;100113.75;5053093;28;20049;-79
2022/12/04 01:21:12;;;;;;;65.70;32.35;;;;;;;2.46;64.38;100112.06;5052609;28;20060;-79
2022/12/04 01:23:38;;;;;;;73.22;31.77;;;;;;;2.47;64.50;100111.16;5035326;28;20057;-79
2022/12/04 01:26:05;;;;;;;62.10;30.98;;;;;;;2.47;64.15;100105.13;5052643;28;20049;-80
2022/12/04 01:28:32;;;;;;;65.15;33.28;;;;;;;2.48;64.31;100110.25;5052456;28;20452;-79
2022/12/04 01:31:00;;;;;;;62.88;32.22;;;;;;;2.48;64.42;100114.63;5035518;28;20082;-79
2022/12/04 01:33:27;;;;;;;71.47;31.35;;;;;;;2.47;64.46;100113.75;5035514;28;20132;-79
2022/12/04 01:35:56;;;;;;;56.97;30.77;;;;;;;2.47;64.13;100113.75;5052654;28;20114;-79
2022/12/04 01:38:23;;;;;;;66.40;32.90;;;;;;;2.47;64.43;100118.13;5052876;28;20053;-80
2022/12/04 01:40:49;;;;;;;62.58;32.22;;;;;;;2.48;64.66;100115.47;5052762;28;20088;-80
2022/12/04 01:43:17;;;;;;;64.18;31.70;;;;;;;2.48;64.83;100118.06;5052757;28;20079;-79
2022/12/04 01:45:46;;;;;;;65.18;31.45;;;;;;;2.48;64.62;100118.06;5034914;28;20084;-80
2022/12/04 01:48:16;;;;;;;64.85;30.30;;;;;;;2.49;64.62;100111.13;5052690;28;20430;-81
2022/12/04 01:50:43;;;;;;;62.42;31.10;;;;;;;2.50;64.65;100115.44;5052738;28;20061;-79
2022/12/04 01:53:11;;;;;;;60.63;30.27;;;;;;;2.52;64.58;100115.41;5052862;28;20053;-80
2022/12/04 01:55:38;;;;;;;64.75;31.55;;;;;;;2.52;64.34;100112.81;5052096;28;20052;-80
2022/12/04 01:58:06;;;;;;;65.78;31.67;;;;;;;2.51;64.49;100106.78;5052491;28;20103;-80
2022/12/04 02:00:32;;;;;;;65.70;30.50;;;;;;;2.53;64.46;100112.78;5052387;28;20495;-79
2022/12/04 02:03:00;;;;;;;64.50;31.13;;;;;;;2.53;64.28;100104.13;5051177;28;20095;-80
2022/12/04 02:05:27;;;;;;;66.53;29.80;;;;;;;2.52;64.38;100105.91;5051854;28;20107;-80
2022/12/04 02:07:58;;;;;;;65.22;31.13;;;;;;;2.51;64.63;100106.78;5049062;28;20053;-80
2022/12/04 02:10:49;;;;;;;66.07;32.47;;;;;;;2.50;64.83;100101.63;5048518;28;20060;-79
2022/12/04 02:13:35;;;;;;;61.30;28.90;;;;;;;2.51;64.65;100105.91;5047805;28;20128;-79
2022/12/04 02:16:14;;;;;;;64.97;30.13;;;;;;;2.51;64.34;100093.78;5051488;28;20061;-79
2022/12/04 02:18:53;;;;;;;56.75;27.40;;;;;;;2.53;64.39;100101.53;5051826;28;20575;-80
2022/12/04 02:21:25;;;;;;;60.90;29.92;;;;;;;2.53;64.74;100098.94;5034230;28;20061;-79
2022/12/04 02:24:24;;;;;;;62.60;29.67;;;;;;;2.53;64.77;100097.22;5034256;28;20064;-79
2022/12/04 02:27:00;;;;;;;56.40;28.27;;;;;;;2.54;64.50;100098.06;5011177;28;20061;-80
2022/12/04 02:29:52;;;;;;;60.10;29.00;;;;;;;2.53;65.25;100106.72;5032146;28;20111;-81
2022/12/04 02:32:35;;;;;;;64.35;30.20;;;;;;;2.54;64.77;100100.69;5032117;28;20086;-79
2022/12/04 02:35:25;;;;;;;61.28;30.42;;;;;;;2.54;64.45;100095.47;5031745;28;20151;-80
2022/12/04 02:38:27;;;;;;;55.92;27.75;;;;;;;2.52;64.46;100085.09;5031469;28;20084;-79
2022/12/04 02:41:18;;;;;;;58.20;27.80;;;;;;;2.53;64.42;100086.81;4999837;28;20104;-80
2022/12/04 02:43:50;;;;;;;58.58;27.25;;;;;;;2.56;64.83;100085.91;5031736;28;20113;-80
2022/12/04 02:46:26;;;;;;;64.25;29.75;;;;;;;2.54;64.67;100088.50;5031687;28;20059;-80
2022/12/04 02:48:57;;;;;;;63.55;28.83;;;;;;;2.54;64.97;100087.69;5031599;28;20051;-80
2022/12/04 02:51:29;;;;;;;62.25;30.02;;;;;;;2.53;64.86;100088.53;5031491;28;20096;-81
2022/12/04 02:54:01;;;;;;;63.88;31.05;;;;;;;2.53;64.58;100083.34;5031530;28;20128;-80
2022/12/04 02:56:31;;;;;;;62.83;30.55;;;;;;;2.53;64.55;100080.75;5031367;28;20085;-79
2022/12/04 02:59:07;;;;;;;61.42;28.60;;;;;;;2.52;64.71;100079.03;5031458;28;20496;-79
2022/12/04 03:01:38;;;;;;;60.67;28.58;;;;;;;2.53;64.36;100072.94;5030168;28;20503;-80
2022/12/04 03:04:14;;;;;;;61.13;29.95;;;;;;;2.50;64.86;100073.88;5031413;28;20053;-80
2022/12/04 03:06:44;;;;;;;60.22;29.38;;;;;;;2.50;64.21;100076.47;5013274;28;20534;-79
2022/12/04 03:09:14;;;;;;;62.78;30.75;;;;;;;2.52;64.19;100079.03;5031324;28;20119;-79
2022/12/04 03:11:45;;;;;;;62.25;28.92;;;;;;;2.48;64.71;100079.09;5031274;28;20474;-79
2022/12/04 03:14:34;;;;;;;60.15;29.33;;;;;;;2.47;64.66;100082.56;5030930;28;20081;-80
2022/12/04 03:17:08;;;;;;;62.28;30.05;;;;;;;2.48;64.50;100086.88;5030731;28;20065;-79
2022/12/04 03:19:47;;;;;;;56.88;28.40;;;;;;;2.48;65.03;100084.28;5031102;28;20156;-79
2022/12/04 03:22:17;;;;;;;57.15;28.10;;;;;;;2.51;65.07;100083.41;5013591;28;20112;-79
2022/12/04 03:24:55;;;;;;;61.58;30.00;;;;;;;2.50;64.88;100086.03;5030799;28;20404;-79
2022/12/04 03:27:25;;;;;;;59.00;28.63;;;;;;;2.52;64.91;100082.50;5013084;28;20540;-80
2022/12/04 03:29:57;;;;;;;59.45;28.55;;;;;;;2.53;64.41;100086.81;5031069;28;20081;-79
2022/12/04 03:32:45;;;;;;;61.22;28.77;;;;;;;2.53;64.92;100079.00;5031165;28;20214;-80
2022/12/04 03:35:30;;;;;;;58.13;27.15;;;;;;;2.57;64.92;100079.81;5030579;28;20084;-80
2022/12/04 03:38:05;;;;;;;61.50;28.50;;;;;;;2.57;64.83;100082.41;5030698;28;20073;-80
2022/12/04 03:40:42;;;;;;;60.47;29.20;;;;;;;2.56;64.61;100083.28;5030706;28;20120;-80
2022/12/04 03:44:06;;;;;;;56.55;28.98;;;;;;;2.55;64.29;100084.19;5013062;28;20057;-80
2022/12/04 03:46:40;;;;;;;59.45;27.77;;;;;;;2.57;64.40;100088.47;4968990;28;20133;-79
2022/12/04 03:49:28;;;;;;;59.88;27.73;;;;;;;2.58;64.57;100082.38;4969216;28;20073;-80
2022/12/04 03:52:02;;;;;;;57.33;27.77;;;;;;;2.58;64.52;100079.78;5017948;28;20462;-79
2022/12/04 03:54:49;;;;;;;58.13;28.23;;;;;;;2.56;65.00;100078.97;5012763;28;20462;-79
2022/12/04 03:57:22;;;;;;;60.92;28.70;;;;;;;2.57;64.48;100072.88;5030047;28;20057;-80
2022/12/04 03:59:51;;;;;;;;;;;;;;;2.59;64.77;100071.09;5030830;28;20045;-80
2022/12/04 04:02:27;;;;;;;52.50;23.83;;;;;;;2.61;64.50;100081.47;5013382;28;19925;-79
2022/12/04 04:04:57;;;;;;;57.17;26.73;;;;;;;2.59;64.30;100080.66;5029967;28;20060;-79
2022/12/04 04:07:31;;;;;;;55.55;27.65;;;;;;;2.57;64.51;100074.59;5030270;28;20142;-79
2022/12/04 04:10:09;;;;;;;61.45;27.65;;;;;;;2.55;64.76;100074.63;5030312;28;20050;-79
2022/12/04 04:12:40;;;;;;;59.42;27.40;;;;;;;2.55;64.34;100071.19;5030298;28;20057;-80
2022/12/04 04:26:31;;;;;;;57.38;27.00;;;;;;;2.52;64.56;100079.03;5029344;28;20115;-79
2022/12/04 04:28:58;;;;;;;58.05;27.20;;;;;;;2.51;64.34;100078.19;5029748;28;20115;-80
2022/12/04 04:31:37;;;;;;;60.25;28.60;;;;;;;2.51;65.12;100077.34;5030183;28;20503;-80
2022/12/04 04:34:22;;;;;;;54.20;27.58;;;;;;;2.50;65.05;100073.03;5029853;28;20064;-80
2022/12/04 04:37:01;;;;;;;54.83;26.55;;;;;;;2.53;64.36;100076.41;5012009;28;20057;-80
2022/12/04 04:39:57;;;;;;;50.63;25.52;;;;;;;2.50;64.78;100076.47;5029862;28;20049;-80
2022/12/04 04:42:28;;;;;;;52.60;24.73;;;;;;;2.51;64.78;100073.00;5029715;28;20053;-80
2022/12/04 04:45:04;;;;;;;51.20;25.77;;;;;;;2.53;64.23;100078.16;5029722;28;20091;-80
2022/12/04 04:47:43;;;;;;;51.67;24.38;;;;;;;2.50;64.37;100081.66;5029758;28;20088;-80
2022/12/04 04:50:13;;;;;;;53.15;26.05;;;;;;;2.53;64.77;100088.53;5029852;28;20582;-79
2022/12/04 04:52:43;;;;;;;53.63;25.55;;;;;;;2.51;64.38;100078.19;5029650;28;20084;-80
2022/12/04 04:55:09;;;;;;;55.70;26.83;;;;;;;2.52;64.67;100082.50;5029467;28;20099;-79
2022/12/04 04:57:36;;;;;;;57.50;25.75;;;;;;;2.52;64.59;100079.03;5029707;28;20136;-80
2022/12/04 05:00:09;;;;;;;53.30;24.90;;;;;;;2.52;64.47;100084.22;5029569;28;20400;-80
2022/12/04 05:02:35;;;;;;;49.17;24.92;;;;;;;2.51;64.17;100090.31;5029763;28;20092;-79
2022/12/04 05:05:02;;;;;;;53.97;25.15;;;;;;;2.50;64.47;100092.06;5029972;28;20046;-80
2022/12/04 05:07:28;;;;;;;53.97;25.15;;;;;;;2.49;64.43;100085.16;5029446;28;20088;-80
2022/12/04 05:09:55;;;;;;;51.40;25.83;;;;;;;2.48;64.72;100089.47;5029742;28;20096;-80
2022/12/04 05:12:22;;;;;;;50.17;25.08;;;;;;;2.46;64.40;100086.06;5029742;28;20062;-80
2022/12/04 05:14:48;;;;;;;55.08;25.52;;;;;;;2.45;65.02;100084.38;5029530;28;20053;-80
2022/12/04 05:17:15;;;;;;;51.53;25.02;;;;;;;2.45;64.32;100078.28;5029419;28;20077;-80
2022/12/04 05:19:54;;;;;;;51.88;23.70;;;;;;;2.44;64.30;100077.44;5029442;28;20060;-80
2022/12/04 05:22:32;;;;;;;50.45;24.27;;;;;;;2.40;64.83;100081.00;5011947;28;20065;-79
2022/12/04 05:25:00;;;;;;;52.17;23.10;;;;;;;2.41;64.43;100081.84;5029068;28;20494;-79
2022/12/04 05:27:28;;;;;;;50.55;24.55;;;;;;;2.42;64.77;100088.72;5029075;28;20459;-80
2022/12/04 05:29:56;;;;;;;50.67;23.70;;;;;;;2.43;64.93;100095.66;5029404;28;20115;-79
2022/12/04 05:32:26;;;;;;;49.60;24.83;;;;;;;2.42;64.40;100092.19;5029288;28;20062;-79
2022/12/04 05:34:54;;;;;;;46.83;23.70;;;;;;;2.42;64.49;100094.81;5029141;28;20107;-79
2022/12/04 05:37:21;;;;;;;49.42;23.73;;;;;;;2.42;64.52;100096.53;5031933;28;20058;-79
2022/12/04 05:39:48;;;;;;;49.78;23.35;;;;;;;2.42;64.96;100089.59;5015245;28;20566;-79
2022/12/04 05:42:14;;;;;;;55.88;23.15;;;;;;;2.43;65.30;100088.72;5032837;28;20080;-79
2022/12/04 05:44:41;;;;;;;45.38;22.42;;;;;;;2.43;65.33;100091.31;5032515;28;20049;-79
2022/12/04 05:47:07;;;;;;;50.35;22.42;;;;;;;2.44;64.97;100092.19;5032458;28;20565;-79
2022/12/04 05:49:34;;;;;;;49.13;23.10;;;;;;;2.43;65.28;100086.13;5033038;28;20096;-80
2022/12/04 05:52:02;;;;;;;44.88;21.98;;;;;;;2.44;65.15;100085.22;5032678;28;20559;-80
2022/12/04 05:54:28;;;;;;;47.63;22.35;;;;;;;2.44;65.06;100085.22;5032868;28;20108;-79
2022/12/04 05:56:54;;;;;;;42.05;21.25;;;;;;;2.45;65.18;100086.97;5314391;22;20081;-85
2022/12/04 05:59:24;;;;;;;45.75;21.30;;;;;;;2.46;64.74;100087.78;5036594;28;20106;-85
2022/12/04 06:01:51;;;;;;;41.83;20.13;;;;;;;2.48;64.87;100078.25;5037417;28;20056;-85
2022/12/04 06:04:17;;;;;;;46.90;20.80;;;;;;;2.48;65.16;100073.06;5055165;28;20061;-85
2022/12/04 06:06:44;;;;;;;43.92;20.13;;;;;;;2.48;64.89;100076.47;5037207;28;20061;-85
2022/12/04 06:09:11;;;;;;;41.20;20.00;;;;;;;2.48;65.01;100079.09;5037252;28;20049;-85
2022/12/04 06:11:39;;;;;;;45.08;20.90;;;;;;;2.48;65.08;100084.28;5055221;28;20056;-85
2022/12/04 06:14:09;;;;;;;43.08;20.73;;;;;;;2.47;65.07;100073.94;5037327;28;20052;-85
2022/12/04 06:16:38;;;;;;;42.75;19.83;;;;;;;2.45;65.10;100068.78;5037407;28;20052;-85
2022/12/04 06:19:08;;;;;;;39.95;20.23;;;;;;;2.44;65.07;100074.81;5037271;28;20465;-85
2022/12/04 06:21:37;;;;;;;40.75;19.42;;;;;;;2.43;65.24;100070.53;5055107;28;20471;-85
2022/12/04 06:24:04;;;;;;;40.20;19.38;;;;;;;2.45;65.08;100068.78;5054976;28;20053;-85
2022/12/04 06:26:32;;;;;;;44.17;19.42;;;;;;;2.44;64.93;100074.81;5037010;28;20065;-85
2022/12/04 06:28:59;;;;;;;39.60;19.13;;;;;;;2.46;65.52;100077.41;5037055;28;20052;-86
2022/12/04 06:31:27;;;;;;;40.50;19.20;;;;;;;2.45;65.11;100067.91;5054425;28;20115;-85
2022/12/04 06:33:56;;;;;;;35.50;18.23;;;;;;;2.45;65.30;100073.09;5036734;28;20048;-85
2022/12/04 06:36:23;;;;;;;37.20;18.70;;;;;;;2.46;65.29;100065.28;5053303;28;20053;-85
2022/12/04 06:38:50;;;;;;;38.42;18.80;;;;;;;2.47;65.40;100066.16;5053449;28;20485;-85
2022/12/04 06:41:19;;;;;;;38.50;17.60;;;;;;;2.47;65.62;100074.78;5054367;28;20061;-85
2022/12/04 06:43:46;;;;;;;38.22;17.35;;;;;;;2.47;65.15;100077.38;5053184;28;20110;-86
2022/12/04 06:46:15;;;;;;;36.35;17.92;;;;;;;2.46;65.15;100069.59;5054174;28;20061;-86
2022/12/04 06:48:43;;;;;;;37.28;16.95;;;;;;;2.44;65.40;100082.63;5053405;28;20060;-85
2022/12/04 06:51:15;;;;;;;34.10;16.92;;;;;;;2.42;65.77;100068.81;5054277;28;20060;-86
2022/12/04 06:53:42;;;;;;;33.97;16.58;;;;;;;2.42;65.45;100066.22;5054355;28;20111;-84
2022/12/04 06:56:16;;;;;;;37.28;16.55;;;;;;;2.42;66.06;100073.16;5053644;28;20048;-84
2022/12/04 06:58:47;;;;;;;34.22;16.70;;;;;;;2.41;65.32;100069.72;5053946;28;20064;-85
2022/12/04 07:01:16;;;;;;;32.92;16.67;;;;;;;2.41;65.48;100067.13;5036389;28;20053;-85
2022/12/04 07:03:44;;;;;;;35.67;16.40;;;;;;;2.41;65.61;100074.91;5036062;28;20088;-85
2022/12/04 07:06:27;;;;;;;33.88;16.02;;;;;;;2.40;65.74;100074.94;4976776;28;20065;-85
2022/12/04 07:09:01;;;;;;;34.58;15.73;;;;;;;2.40;65.98;100081.00;5022050;28;20140;-85
2022/12/04 07:11:28;;;;;;;29.63;15.80;;;;;;;2.42;65.97;100088.72;5036422;28;20460;-85
2022/12/04 07:13:55;;;;;;;30.15;15.93;;;;;;;2.43;65.81;100086.13;5036385;28;20501;-85
2022/12/04 07:16:26;;;;;;;34.15;17.30;;;;;;;2.42;65.79;100097.41;5053810;28;20060;-85
2022/12/04 07:18:52;;;;;;;28.80;15.13;;;;;;;2.43;65.84;100093.06;5052469;28;20099;-85
2022/12/04 07:21:25;;;;;;;31.48;16.50;;;;;;;2.42;65.74;100089.59;5036200;28;20064;-85
2022/12/04 07:24:01;;;;;;;31.30;15.48;;;;;;;2.40;65.92;100091.38;5053725;28;20464;-84
2022/12/04 07:26:29;;;;;;;33.95;16.55;;;;;;;2.41;65.85;100093.09;5053922;28;20184;-84
2022/12/04 07:29:01;;;;;;;34.00;15.73;;;;;;;2.40;66.16;100098.31;5035565;28;20064;-84
2022/12/04 07:31:28;;;;;;;32.25;15.30;;;;;;;2.40;65.72;100091.38;5035833;28;20405;-84
2022/12/04 07:34:06;;;;;;;32.75;15.35;;;;;;;2.38;66.15;100094.88;5035876;28;20547;-84
2022/12/04 07:36:32;;;;;;;29.98;15.57;;;;;;;2.39;65.99;100094.84;5053002;28;20087;-84
2022/12/04 07:39:05;;;;;;;31.80;15.40;;;;;;;2.37;65.94;100091.44;5053394;28;20502;-85
2022/12/04 07:41:31;;;;;;;31.42;14.93;;;;;;;2.39;65.43;100092.25;5035900;28;20394;-84
2022/12/04 07:44:05;;;;;;;31.10;15.65;;;;;;;2.37;66.30;100087.97;5035554;28;20099;-84
2022/12/04 07:46:32;;;;;;;30.45;14.43;;;;;;;2.39;65.68;100092.25;5035567;28;20065;-84
2022/12/04 07:48:59;;;;;;;28.13;14.23;;;;;;;2.39;65.87;100094.00;5035766;28;20122;-84
2022/12/04 07:51:28;;;;;;;28.67;14.43;;;;;;;2.37;65.88;100095.75;5035737;28;20460;-84
2022/12/04 07:53:57;;;;;;;29.40;15.02;;;;;;;2.35;65.86;100095.78;5035570;28;20060;-84
2022/12/04 07:56:28;;;;;;;31.05;14.73;;;;;;;2.37;66.33;100101.81;5052700;28;20057;-84
2022/12/04 07:58:54;;;;;;;26.50;13.63;;;;;;;2.37;66.02;100107.03;5034996;28;20124;-84
2022/12/04 08:01:22;;;;;;;27.23;14.00;;;;;;;2.38;66.63;100105.25;5052810;28;20107;-84
2022/12/04 08:03:51;;;;;;;25.17;12.90;;;;;;;2.37;66.79;100107.03;5052893;28;20061;-84
2022/12/04 08:06:21;;;;;;;27.10;14.30;;;;;;;2.38;66.68;100103.53;5035044;28;20103;-84
2022/12/04 08:08:48;;;;;;;27.10;14.32;;;;;;;2.41;66.39;100110.41;5035146;28;20095;-84
2022/12/04 08:11:21;;;;;;;30.05;13.80;;;;;;;2.39;66.44;100102.63;5035425;28;20048;-84
2022/12/04 08:13:52;;;;;;;26.85;14.00;;;;;;;2.41;66.38;100098.28;5053016;28;20515;-84
2022/12/04 08:16:18;;;;;;;28.73;14.32;;;;;;;2.42;66.47;100101.72;5052978;28;20115;-84
2022/12/04 08:18:47;;;;;;;28.48;14.45;;;;;;;2.42;66.45;100102.59;5035169;28;20504;-84
2022/12/04 08:21:19;;;;;;;29.73;14.50;;;;;;;2.42;66.26;100099.13;5034803;28;20053;-83
2022/12/04 08:23:47;;;;;;;23.10;11.77;;;;;;;2.43;66.02;100088.72;5053172;28;20060;-83
2022/12/04 08:26:24;;;;;;;26.65;13.60;;;;;;;2.43;66.44;100095.66;5035045;28;20113;-83
2022/12/04 08:28:53;;;;;;;28.60;14.60;;;;;;;2.44;66.38;100103.41;5052273;28;20065;-83
2022/12/04 08:31:23;;;;;;;28.15;14.80;;;;;;;2.45;66.57;100102.56;5052678;28;20084;-83
2022/12/04 08:33:52;;;;;;;28.70;15.10;;;;;;;2.47;66.42;100098.16;5052333;28;20059;-84
2022/12/04 08:36:20;;;;;;;27.42;14.13;;;;;;;2.48;66.64;100102.47;5035018;28;20057;-84
2022/12/04 08:38:47;;;;;;;29.17;14.27;;;;;;;2.51;66.66;100100.72;5034943;28;20452;-84
2022/12/04 08:41:18;;;;;;;31.95;15.55;;;;;;;2.52;67.09;100105.03;5034936;28;20044;-84
2022/12/04 08:43:44;;;;;;;29.10;15.05;;;;;;;2.54;66.64;100101.50;5052713;28;20052;-84
2022/12/04 08:46:14;;;;;;;35.92;15.90;;;;;;;2.56;66.61;100098.88;5052234;28;20127;-83
2022/12/04 08:48:41;;;;;;;33.80;16.42;;;;;;;2.57;66.22;100098.88;5051197;28;20168;-84
2022/12/04 08:51:22;;;;;;;33.63;15.93;;;;;;;2.59;66.63;100101.44;5052662;28;20057;-84
2022/12/04 08:53:53;;;;;;;32.08;16.13;;;;;;;2.60;66.87;100093.63;5034897;28;20513;-84
2022/12/04 08:56:20;;;;;;;33.60;15.77;;;;;;;2.64;66.49;100097.00;5034370;28;20085;-84
2022/12/04 08:58:47;;;;;;;35.28;17.05;;;;;;;2.64;66.42;100099.59;5052317;28;20555;-84
2022/12/04 09:01:17;;;;;;;36.63;19.05;;;;;;;2.65;66.78;100103.91;5052427;28;20045;-84
2022/12/04 09:03:44;;;;;;;35.38;18.02;;;;;;;2.67;66.59;100096.97;5052170;28;20065;-84
2022/12/04 09:06:12;;;;;;;35.47;18.25;;;;;;;2.68;66.34;100105.59;5034230;28;20119;-83
2022/12/04 09:08:39;;;;;;;38.35;19.50;;;;;;;2.68;66.41;100106.47;5052275;28;20485;-84
2022/12/04 09:11:12;;;;;;;41.17;19.73;;;;;;;2.69;67.01;100107.34;5035751;28;20053;-84
2022/12/04 09:13:47;;;;;;;41.10;18.70;;;;;;;2.70;66.97;100107.28;5038894;28;20479;-84
2022/12/04 09:16:17;;;;;;;39.75;19.00;;;;;;;2.73;66.94;100109.81;5055718;28;20053;-84
2022/12/04 09:18:47;;;;;;;42.38;20.05;;;;;;;2.76;67.08;100114.09;5056034;28;20061;-84
2022/12/04 09:21:16;;;;;;;41.30;19.92;;;;;;;2.77;66.59;100109.78;5055966;28;20480;-84
2022/12/04 09:23:50;;;;;;;45.15;20.83;;;;;;;2.77;67.20;100105.44;5055857;28;20107;-84
2022/12/04 09:26:21;;;;;;;;;;;;;;;2.80;67.18;100115.75;5039008;28;20099;-84
2022/12/04 09:28:49;;;;;;;40.38;17.60;;;;;;;2.83;66.05;100115.72;5038518;28;19925;-83
2022/12/04 09:31:23;;;;;;;43.38;21.08;;;;;;;2.80;67.48;100114.94;5038196;28;20052;-83
2022/12/04 09:33:50;;;;;;;45.92;20.38;;;;;;;2.82;66.88;100107.94;5038122;28;20095;-82
2022/12/04 09:36:28;;;;;;;40.80;20.95;;;;;;;2.81;67.27;100108.84;5037802;28;20057;-83
2022/12/04 09:38:54;;;;;;;48.78;21.73;;;;;;;2.84;66.71;100108.78;5037909;28;20132;-83
2022/12/04 09:41:59;;;;;;;46.17;22.70;;;;;;;2.82;67.03;100102.75;5037682;28;20128;-82
2022/12/04 09:44:33;;;;;;;52.58;23.00;;;;;;;2.85;66.96;100115.69;5037906;28;20474;-83
2022/12/04 09:47:26;;;;;;;53.53;22.80;;;;;;;2.83;67.32;100107.06;5037652;28;20056;-84
2022/12/04 09:50:02;;;;;;;47.95;21.33;;;;;;;2.85;66.66;100110.50;5038001;28;20499;-82
2022/12/04 09:52:59;;;;;;;52.35;23.50;;;;;;;2.84;67.02;100106.19;5037550;28;20498;-82
2022/12/04 09:55:35;;;;;;;48.60;24.20;;;;;;;2.88;66.68;100109.56;5037770;28;20060;-82
2022/12/04 09:58:05;;;;;;;48.42;23.35;;;;;;;2.88;66.69;100112.16;5037501;28;20108;-82
2022/12/04 10:00:41;;;;;;;50.72;24.17;;;;;;;2.86;67.64;100114.78;5037511;28;20471;-82
2022/12/04 10:03:19;;;;;;;51.55;24.67;;;;;;;2.86;67.42;100115.66;5055087;28;20107;-82
2022/12/04 10:06:01;;;;;;;48.53;23.45;;;;;;;2.88;67.16;100112.16;5037897;28;20148;-82
2022/12/04 10:08:39;;;;;;;53.85;24.00;;;;;;;2.90;67.29;100115.59;5037267;28;20084;-85
2022/12/04 10:11:17;;;;;;;51.65;24.60;;;;;;;2.92;67.36;100104.25;5037441;28;20524;-85
2022/12/04 10:14:24;;;;;;;55.45;26.17;;;;;;;2.92;67.50;100106.88;5037411;28;20053;-84
2022/12/04 10:17:17;;;;;;;56.65;25.55;;;;;;;2.93;67.63;100100.81;5054731;28;20049;-84
2022/12/04 10:19:58;;;;;;;49.80;22.90;;;;;;;2.95;66.97;100101.59;5037307;28;20073;-84
2022/12/04 10:22:44;;;;;;;53.80;25.90;;;;;;;2.93;67.18;100092.13;5036495;28;20053;-85
2022/12/04 10:25:16;;;;;;;52.80;25.00;;;;;;;2.96;66.83;100089.47;5037400;28;20118;-85
2022/12/04 10:27:48;;;;;;;50.53;25.33;;;;;;;2.97;66.57;100092.06;5037378;28;20409;-85
2022/12/04 10:30:19;;;;;;;54.47;25.73;;;;;;;2.96;67.27;100087.72;5037348;28;20049;-86
2022/12/04 10:32:48;;;;;;;60.35;26.63;;;;;;;2.99;66.75;100085.06;5061909;23;20539;-83
2022/12/04 10:35:28;;;;;;;51.67;25.15;;;;;;;2.99;67.83;100090.25;5052685;28;20071;-83
2022/12/04 10:38:05;;;;;;;55.78;25.73;;;;;;;3.03;67.09;100087.59;5052706;28;20076;-83
2022/12/04 10:40:56;;;;;;;62.15;27.15;;;;;;;3.04;67.17;100078.91;5052447;28;20064;-82
2022/12/04 10:43:38;;;;;;;53.25;25.33;;;;;;;3.08;67.08;100083.16;5052667;28;20099;-84
2022/12/04 10:46:06;;;;;;;50.20;24.38;;;;;;;3.11;66.84;100083.09;5034685;28;20136;-83
2022/12/04 10:48:37;;;;;;;54.35;25.50;;;;;;;3.13;66.77;100084.78;5052261;28;20053;-84
2022/12/04 10:51:03;;;;;;;56.30;25.80;;;;;;;3.13;66.98;100082.19;5052442;28;20061;-84
2022/12/04 10:53:34;;;;;;;53.75;25.88;;;;;;;3.15;66.57;100074.34;5052144;28;20053;-83
2022/12/04 10:56:09;;;;;;;51.03;26.02;;;;;;;3.14;67.15;100088.22;5051592;28;20625;-83
2022/12/04 10:58:36;;;;;;;56.35;26.30;;;;;;;3.17;66.54;100088.16;5052127;28;20052;-84
2022/12/04 11:01:10;;;;;;;54.00;26.13;;;;;;;3.16;66.96;100091.66;5052095;28;20136;-80
2022/12/04 11:03:37;;;;;;;53.92;26.85;;;;;;;3.18;67.21;100092.47;5052092;28;20060;-81
2022/12/04 11:06:06;;;;;;;55.22;26.30;;;;;;;3.19;66.83;100090.75;5051831;28;20175;-85
2022/12/04 11:08:40;;;;;;;54.35;26.13;;;;;;;3.19;66.98;100083.81;5051874;28;20068;-84
2022/12/04 11:11:15;;;;;;;48.63;24.85;;;;;;;3.22;67.25;100088.09;5051976;28;20057;-81
2022/12/04 11:13:41;;;;;;;51.63;25.60;;;;;;;3.24;66.54;100076.75;5051860;28;20096;-81
2022/12/04 11:16:31;;;;;;;50.67;24.60;;;;;;;3.22;67.18;100077.69;5051653;28;20144;-84
2022/12/04 11:18:58;;;;;;;47.00;24.65;;;;;;;3.26;67.04;100077.56;5052137;28;20049;-81
2022/12/04 11:21:28;;;;;;;51.00;24.23;;;;;;;3.28;66.59;100084.50;5051889;28;20061;-82
2022/12/04 11:23:55;;;;;;;56.03;25.85;;;;;;;3.29;66.77;100081.84;5034051;28;20056;-83
2022/12/04 11:26:32;;;;;;;50.92;25.95;;;;;;;3.28;67.15;100074.94;5050451;28;20394;-86
2022/12/04 11:29:04;;;;;;;48.95;25.30;;;;;;;3.32;66.80;100084.38;5051835;28;20072;-83
2022/12/04 11:31:31;;;;;;;50.75;25.45;;;;;;;3.33;66.82;100077.44;5034249;28;20061;-84
2022/12/04 11:34:06;;;;;;;46.10;23.77;;;;;;;3.32;66.83;100083.56;5051681;28;20048;-81
2022/12/04 11:36:39;;;;;;;48.10;24.65;;;;;;;3.33;66.58;100091.28;5051357;28;20056;-82
2022/12/04 11:39:12;;;;;;;50.15;24.85;;;;;;;3.33;66.50;100086.09;5033878;28;20152;-85
2022/12/04 11:41:38;;;;;;;51.85;25.13;;;;;;;3.37;66.70;100085.13;5051288;28;20070;-82
2022/12/04 11:44:24;;;;;;;48.85;25.08;;;;;;;3.37;66.56;100066.09;5051612;28;20103;-80
2022/12/04 11:46:55;;;;;;;53.80;26.00;;;;;;;3.37;66.81;100069.53;5051152;28;20049;-81
2022/12/04 11:49:25;;;;;;;36.55;19.20;;;;;;;3.40;66.52;100068.59;5051426;28;20053;-81